Little Washington, Ohio
Current Conditions -  °F | °C
As of 3:05 PM on Sunday 25 Jan 2015 (Local Time) from KMFD Reporting Station
Light Snow Light Snow  
Wind Chill: 15°   Ceiling: 3400
Heat Index: 27°   Visibility: 5mi
Dew Point: 23°   Wind: 15mph
Humidity: 85%   Direction: 40°NE
Pressure: 29.75"   Gusts: NA
Location:  40.7789°N, 82.5216°W
Report Text: KMFD 252005Z 04013KT 5SM -SN BR FEW007 FEW026 OVC034 M03/M05 A2975 RMK AO2 P0000 T10281050
Loading
Personal Weather Stations






























Interactive Weather Map New forecast layout! Learn more

10-Day Weather Forecast

Advertisements
Track Severe Weather on mobile